Arlington, Illinois
Current Conditions -  °F | °C
As of 8:35 AM on Sunday 23 Nov 2014 (Local Time) from KVYS Reporting Station
Drizzle Drizzle  
Wind Chill: 50°   Ceiling: 6500
Heat Index: 50°   Visibility: 10mi
Dew Point: 46°   Wind: 13mph
Humidity: 85%   Direction: 180°S
Pressure: 29.71"   Gusts: NA
Location:  41.47°N, 89.25°W
Report Text: KVYS 231435Z AUTO 18011KT 10SM -DZ SCT050 BKN065 OVC085 10/08 A2971 RMK AO2 T01000076
Loading
Personal Weather Stations






























Interactive Weather Map New forecast layout! Learn more

10-Day Weather Forecast

Advertisements
Track Severe Weather on mobile